• Join FlightAware (Why Join?)
  • Login
  • US Flag 
02:18PM EDT


 

Airport Tracker/Info


-or-


 

Live Flight TrackerFlight Track Log ✈ EMD21 ✈ 17-Jun-2013 ✈ KICT - KICT

Flight Track Log - Related Links

Times and Time Zones

All times are in EDT time to prevent confusion due to time zone crossing. See the EMD21 flight status page for this flight to view local times or setup timezone preferences in your user account.

Time Position Orientation Groundspeed Altitude Reporting Facility
EDT Latitude Longitude Course Direction KTS MPH feet Rate Location/Type
03:35PM 37.6647 -97.4186 335° Northwest 141 162 1,700  Level Kansas City Center
03:36PM 37.7006 -97.4397 335° Northwest 164 189 2,900 1,080 Climbing Kansas City Center
03:37PM 37.7042 -97.4789 277° West 172 198 3,700 1,140 Climbing Kansas City Center
03:38PM 37.7061 -97.5367 272° West 166 191 5,000 1,320 Climbing Kansas City Center
03:39PM 37.7089 -97.6131 273° West 166 191 6,600 1,260 Climbing Kansas City Center
03:40PM 37.7106 -97.6656 272° West 166 191 7,700 1,020 Climbing Kansas City Center
03:41PM 37.7119 -97.7256 272° West 168 193 8,700 900 Climbing Kansas City Center
03:41PM 37.7131 -97.7444 274° West 172 198 9,000 960 Climbing Kansas City Center
03:42PM 37.7425 -97.7508 350° North 173 199 9,700 1,080 Climbing Kansas City Center
03:42PM 37.7556 -97.7514 358° North 155 178 10,100 1,020 Climbing Kansas City Center
03:43PM 37.7869 -97.7492 North 160 184 10,800 900 Climbing Kansas City Center
03:44PM 37.8322 -97.7464 North 163 188 11,700 780 Climbing Kansas City Center
03:45PM 37.8408 -97.7917 284° West 192 221 12,500 360 Climbing Kansas City Center
03:46PM 37.7750 -97.7775 170° South 206 237 12,600  Climbing Kansas City Center
03:47PM 37.7369 -97.7486 149° Southeast 223 257 12,600 -60 Level Kansas City Center
03:48PM 37.7417 -97.7608 296° West 220 253 12,500  Descending Kansas City Center
03:49PM 37.7194 -97.7278 130° Southeast 219 252 12,600 60 Climbing Kansas City Center
03:50PM 37.6886 -97.7581 218° Southwest 228 262 12,700 -60 Climbing Kansas City Center
03:51PM 37.6392 -97.7906 207° Southwest 230 265 12,500 -60 Descending Kansas City Center
03:52PM 37.6775 -97.8142 334° Northwest 191 220 12,600  Climbing Kansas City Center
03:53PM 37.7189 -97.8167 357° North 133 153 12,600  Level Kansas City Center
03:54PM 37.7561 -97.8244 351° North 153 176 12,700  Climbing Kansas City Center
03:55PM 37.7633 -97.8111 56° Northeast 149 171 12,600 -240 Descending Kansas City Center
03:55PM 37.7686 -97.7911 72° East 103 119 12,500  Descending Kansas City Center
03:56PM 37.7753 -97.7492 79° East 132 152 12,600  Climbing Kansas City Center
03:57PM 37.7231 -97.7422 174° South 202 232 12,500 -1,680 Descending Kansas City Center
03:58PM 37.6669 -97.7656 198° South 208 239 9,100 -2,400 Descending Kansas City Center
03:59PM 37.6047 -97.7850 194° South 189 217 7,600 -780 Descending Kansas City Center
04:00PM 37.5714 -97.8244 223° Southwest 198 228 7,600 -120 Level Kansas City Center
04:01PM 37.5850 -97.8797 287° West 178 205 7,400 -780 Descending Kansas City Center
04:03PM 37.6111 -97.9383 299° West 204 235 6,000 -1,380 Descending Kansas City Center
04:03PM 37.6608 -97.9478 351° North 199 229 4,700 -1,080 Descending Kansas City Center
04:04PM 37.7203 -97.9550 355° North 193 222 4,000 -360 Descending Kansas City Center
04:05PM 37.7667 -97.9586 356° North 169 194 4,000  Level Kansas City Center
04:07PM 37.8150 -97.9594 359° North 161 185 4,000  Level Kansas City Center
04:08PM 37.8589 -97.9556 North 155 178 4,100  Climbing Kansas City Center
04:09PM 37.9044 -97.9489 North 167 192 4,100  Level Kansas City Center
04:10PM 37.9536 -97.9364 11° North 166 191 4,100  Level Kansas City Center
04:11PM 37.9911 -97.9333 North 137 158 4,100 -60 Level Kansas City Center
04:12PM 38.0047 -97.9658 298° West 164 189 4,000 -60 Descending Kansas City Center
04:13PM 37.9675 -97.9953 212° Southwest 159 183 4,000 -180 Level Kansas City Center
04:14PM 37.9767 -97.9539 74° East 152 175 3,600 -540 Descending Kansas City Center
04:15PM 38.0053 -97.9261 37° Northeast 120 138 3,000 -780 Descending Kansas City Center
04:16PM 38.0281 -97.9014 41° Northeast 113 130 2,200 -480 Descending Kansas City Center
04:17PM 38.0469 -97.8772 45° Northeast 109 125 2,100 -180 Descending Kansas City Center
04:17PM 38.0500 -97.8631 75° East 126 145 2,000  Descending Kansas City Center
04:18PM 38.0731 -97.8636 359° North 122 140 2,100 480 Climbing Kansas City Center
04:19PM 38.0969 -97.8964 313° West 175 201 2,900 900 Climbing Kansas City Center
04:19PM 38.1006 -97.9042 301° West 139 160 3,100 960 Climbing Kansas City Center
04:20PM 38.1086 -97.9531 282° West 181 208 3,900 840 Climbing Kansas City Center
04:20PM 38.1069 -97.9603 254° West 164 189 4,000 60 Climbing Kansas City Center
04:21PM 38.0839 -98.0047 237° Southwest 209 241 4,000  Level Kansas City Center
04:21PM 38.0792 -98.0017 153° Southeast 178 205 4,000  Level Kansas City Center
04:22PM 38.0414 -98.0003 178° South 191 220 4,000  Level Kansas City Center
04:22PM 38.0300 -98.0144 224° Southwest 183 211 4,000  Level Kansas City Center
04:23PM 38.0036 -98.0456 223° Southwest 174 200 4,000  Level Kansas City Center
04:23PM 37.9950 -98.0558 223° Southwest 177 204 4,000  Level Kansas City Center
04:24PM 37.9678 -98.0881 223° Southwest 179 206 4,000 60 Level Kansas City Center
04:24PM 37.9561 -98.0878 179° South 177 204 4,100  Climbing Kansas City Center
04:25PM 37.9358 -98.0608 134° Southeast 148 170 4,000 -120 Descending Kansas City Center
04:25PM 37.9394 -98.0458 73° East 163 188 4,000  Level Kansas City Center
04:26PM 37.9461 -98.0144 75° East 132 152 4,000  Level Kansas City Center
04:26PM 37.9483 -98.0003 79° East 143 165 4,000 -300 Level Kansas City Center
04:27PM 37.9633 -97.9719 56° Northeast 124 143 3,700 -540 Descending Kansas City Center
04:27PM 37.9686 -97.9678 32° Northeast 134 154 3,500 -600 Descending Kansas City Center
04:28PM 37.9917 -97.9386 45° Northeast 136 157 3,100 -420 Descending Kansas City Center
04:28PM 38.0017 -97.9303 33° Northeast 132 152 3,100 -360 Level Kansas City Center
04:29PM 38.0164 -97.9111 46° Northeast 121 139 2,800 -600 Descending Kansas City Center
04:29PM 38.0258 -97.9008 41° Northeast 124 143 2,500 -720 Descending Kansas City Center
04:30PM 38.0394 -97.8864 40° Northeast 114 131 2,100 -420 Descending Kansas City Center
04:30PM 38.0503 -97.8772 34° Northeast 117 135 2,100 -120 Level Kansas City Center
04:31PM 38.0706 -97.8844 344° North 122 140 2,000 -240 Descending Kansas City Center
04:31PM 38.0806 -97.8808 16° North 128 147 1,900 -300 Descending Kansas City Center
04:32PM 38.0600 -97.8603 142° Southeast 122 140 1,600 -300 Descending Kansas City Center